Time;durP1;ratioP1;P1;durP2;ratioP2;P2;SDS_P1;SDS_P2;PMS_P1;PMS_P2;Temp;Humidity;BMP_temperature;BMP_pressure;BME280_temperature;BME280_humidity;BME280_pressure;Samples;Min_cycle;Max_cycle;Signal;HPM_P1;HPM_P2
2022/05/25 00:01:43;;;;;;;2.63;2.53;;;22.60;71.60;;;;;;5032675;28;20481;-63
2022/05/25 00:04:11;;;;;;;2.20;2.20;;;22.60;71.70;;;;;;5032728;28;20456;-63
2022/05/25 00:06:37;;;;;;;2.30;2.30;;;22.60;71.70;;;;;;5032636;28;20469;-65
2022/05/25 00:09:05;;;;;;;1.93;1.93;;;22.60;71.80;;;;;;5032519;28;20535;-64
2022/05/25 00:11:32;;;;;;;2.63;2.53;;;22.50;71.70;;;;;;5032468;28;20441;-64
2022/05/25 00:14:00;;;;;;;2.47;2.43;;;22.50;72.40;;;;;;5032799;28;20441;-63
2022/05/25 00:16:27;;;;;;;2.30;2.20;;;22.50;71.70;;;;;;5032569;28;20991;-63
2022/05/25 00:21:38;;;;;;;2.43;2.20;;;22.50;71.90;;;;;;5032331;28;20909;-64
2022/05/25 00:24:05;;;;;;;2.30;2.20;;;22.50;71.90;;;;;;5032793;28;20441;-63
2022/05/25 00:26:33;;;;;;;2.60;2.47;;;22.50;72.00;;;;;;5032417;28;20517;-66
2022/05/25 00:29:02;;;;;;;3.00;2.83;;;22.50;72.00;;;;;;5032185;28;20456;-64
2022/05/25 00:31:29;;;;;;;2.50;2.40;;;22.40;72.00;;;;;;5032072;28;20448;-64
2022/05/25 00:33:55;;;;;;;2.73;2.63;;;22.50;72.10;;;;;;5032586;28;20452;-63
2022/05/25 00:36:22;;;;;;;3.17;3.07;;;22.40;72.10;;;;;;5032247;28;20460;-63
2022/05/25 00:38:49;;;;;;;2.47;2.37;;;22.40;72.10;;;;;;5031976;28;20445;-63
2022/05/25 00:41:16;;;;;;;2.83;2.67;;;22.50;72.10;;;;;;5031850;28;20512;-63
2022/05/25 00:43:43;;;;;;;2.27;2.27;;;22.40;72.00;;;;;;5032337;28;20456;-64
2022/05/25 00:46:16;;;;;;;2.33;2.33;;;22.40;72.10;;;;;;5031918;28;20469;-63
2022/05/25 00:48:48;;;;;;;2.57;2.47;;;22.40;72.30;;;;;;5031698;28;20786;-63
2022/05/25 00:51:21;;;;;;;3.90;3.70;;;22.40;72.30;;;;;;5032017;28;20445;-63
2022/05/25 00:53:52;;;;;;;2.30;2.30;;;22.40;72.40;;;;;;5031916;28;20449;-64
2022/05/25 00:56:21;;;;;;;2.50;2.50;;;22.40;72.30;;;;;;5031888;28;20825;-65
2022/05/25 00:58:53;;;;;;;2.73;2.63;;;22.30;72.20;;;;;;5031464;28;20449;-63
2022/05/25 01:01:21;;;;;;;2.50;2.40;;;22.40;72.40;;;;;;5031865;28;20481;-63
2022/05/25 01:03:48;;;;;;;2.50;2.40;;;22.30;72.30;;;;;;5031904;28;20456;-64
2022/05/25 01:06:45;;;;;;;2.90;2.90;;;22.40;72.60;;;;;;5031633;28;20979;-63
2022/05/25 01:09:20;;;;;;;2.93;2.83;;;22.30;72.40;;;;;;4992280;28;20959;-63
2022/05/25 01:11:57;;;;;;;3.67;3.47;;;22.30;72.50;;;;;;5012015;28;20816;-65
2022/05/25 01:14:48;;;;;;;2.50;2.40;;;22.30;72.60;;;;;;5012083;28;21119;-60
2022/05/25 01:17:27;;;;;;;2.77;2.70;;;22.30;72.60;;;;;;5016119;28;20465;-64
2022/05/25 01:20:09;;;;;;;2.73;2.63;;;22.30;72.70;;;;;;5031597;28;20456;-63
2022/05/25 01:22:57;;;;;;;2.60;2.60;;;22.20;72.80;;;;;;5031596;28;20426;-63
2022/05/25 01:25:52;;;;;;;2.80;2.80;;;22.20;72.80;;;;;;5031889;28;20445;-63
2022/05/25 01:28:28;;;;;;;2.93;2.83;;;22.30;72.90;;;;;;5030690;28;20448;-64
2022/05/25 01:30:57;;;;;;;2.93;2.83;;;22.20;72.80;;;;;;5031296;28;20436;-63
2022/05/25 01:33:30;;;;;;;3.40;3.13;;;22.20;72.90;;;;;;5031514;28;20948;-63
2022/05/25 01:36:03;;;;;;;2.80;2.70;;;22.20;72.90;;;;;;5031404;28;20437;-63
2022/05/25 01:38:37;;;;;;;2.50;2.50;;;22.20;73.00;;;;;;5031145;28;20441;-63
2022/05/25 01:41:12;;;;;;;3.10;3.00;;;22.20;72.90;;;;;;5031387;28;20480;-63
2022/05/25 01:43:43;;;;;;;2.40;2.40;;;22.20;73.00;;;;;;5031424;28;20502;-63
2022/05/25 01:46:16;;;;;;;2.27;2.20;;;22.20;73.00;;;;;;5031343;28;20476;-63
2022/05/25 01:48:45;;;;;;;3.00;2.90;;;22.20;73.20;;;;;;5030913;28;20441;-63
2022/05/25 01:51:18;;;;;;;2.97;2.87;;;22.20;73.10;;;;;;5031046;28;20437;-63
2022/05/25 01:53:48;;;;;;;2.93;2.80;;;22.20;73.10;;;;;;5031385;28;20452;-63
2022/05/25 01:56:16;;;;;;;2.50;2.40;;;22.20;73.20;;;;;;5031161;28;20476;-63
2022/05/25 01:58:47;;;;;;;3.00;2.90;;;22.10;73.10;;;;;;5030711;28;20472;-63
2022/05/25 02:01:15;;;;;;;2.90;2.80;;;22.20;73.20;;;;;;5031026;28;20485;-63
2022/05/25 02:06:56;;;;;;;3.30;3.17;;;22.10;73.20;;;;;;5031225;28;20440;-65
2022/05/25 02:09:33;;;;;;;2.40;2.40;;;22.10;73.30;;;;;;5008591;28;20462;-61
2022/05/25 02:12:08;;;;;;;2.97;2.87;;;22.10;73.30;;;;;;5011478;28;20442;-63
2022/05/25 02:14:46;;;;;;;2.47;2.47;;;22.10;73.30;;;;;;5011436;28;20449;-63
2022/05/25 02:17:30;;;;;;;2.67;2.60;;;22.10;73.30;;;;;;5013786;28;20472;-63
2022/05/25 02:20:01;;;;;;;2.60;2.60;;;22.10;73.30;;;;;;5030997;28;20452;-65
2022/05/25 02:22:35;;;;;;;2.90;2.80;;;22.10;73.40;;;;;;5031029;28;20485;-60
2022/05/25 02:25:09;;;;;;;2.90;2.90;;;22.10;73.40;;;;;;5031075;28;20955;-63
2022/05/25 02:27:41;;;;;;;3.00;2.90;;;22.10;73.30;;;;;;5030456;28;20491;-63
2022/05/25 02:30:13;;;;;;;2.47;2.47;;;22.10;73.30;;;;;;5031296;28;20447;-64
2022/05/25 02:32:45;;;;;;;2.37;2.37;;;22.10;73.30;;;;;;5031026;28;20449;-63
2022/05/25 02:35:15;;;;;;;2.77;2.67;;;22.00;73.30;;;;;;5030843;28;20944;-63
2022/05/25 02:37:43;;;;;;;2.43;2.33;;;22.00;73.40;;;;;;5030399;28;20837;-64
2022/05/25 02:40:13;;;;;;;2.23;2.13;;;22.00;73.40;;;;;;5031403;28;20959;-63
2022/05/25 02:42:41;;;;;;;2.43;2.40;;;22.00;73.50;;;;;;5034434;28;20503;-63
2022/05/25 02:45:10;;;;;;;2.20;2.20;;;22.00;73.40;;;;;;5034424;28;20457;-64
2022/05/25 02:47:37;;;;;;;2.53;2.53;;;22.00;73.30;;;;;;5033781;28;20469;-65
2022/05/25 02:50:07;;;;;;;2.47;2.47;;;22.00;73.30;;;;;;5034369;28;20826;-63
2022/05/25 02:52:34;;;;;;;3.10;2.93;;;22.00;73.50;;;;;;5034407;28;20448;-66
2022/05/25 02:55:01;;;;;;;2.57;2.47;;;22.00;73.50;;;;;;5034132;28;20453;-63
2022/05/25 02:57:28;;;;;;;2.73;2.63;;;22.00;73.50;;;;;;5033949;28;20472;-66
2022/05/25 02:59:54;;;;;;;2.87;2.77;;;22.00;73.50;;;;;;5034178;28;20456;-63
2022/05/25 03:02:21;;;;;;;2.80;2.60;;;22.00;73.50;;;;;;5033993;28;20563;-63
2022/05/25 03:04:49;;;;;;;2.50;2.40;;;22.00;73.50;;;;;;5033770;28;20449;-65
2022/05/25 03:07:17;;;;;;;2.47;2.47;;;22.00;73.40;;;;;;5033749;28;20972;-63
2022/05/25 03:09:44;;;;;;;2.70;2.60;;;22.00;73.40;;;;;;5033814;28;20449;-65
2022/05/25 03:12:12;;;;;;;2.70;2.57;;;22.00;73.40;;;;;;5033854;28;20448;-64
2022/05/25 03:14:41;;;;;;;3.03;2.93;;;22.00;73.40;;;;;;5033611;28;20838;-60
2022/05/25 03:17:12;;;;;;;2.63;2.53;;;22.00;74.20;;;;;;5033574;28;20519;-62
2022/05/25 03:19:40;;;;;;;2.40;2.40;;;22.00;73.50;;;;;;5033845;28;20445;-63
2022/05/25 03:22:07;;;;;;;2.50;2.40;;;22.00;73.40;;;;;;5034062;28;20488;-63
2022/05/25 03:24:35;;;;;;;2.90;2.80;;;21.90;73.20;;;;;;5033414;28;20441;-63
2022/05/25 03:27:01;;;;;;;2.60;2.57;;;21.90;73.30;;;;;;5033357;28;20476;-63
2022/05/25 03:29:30;;;;;;;3.20;3.13;;;21.90;73.40;;;;;;5033493;28;20502;-66
2022/05/25 03:31:57;;;;;;;2.40;2.40;;;21.90;73.30;;;;;;5033454;28;20507;-63
2022/05/25 03:34:24;;;;;;;2.23;2.13;;;21.90;73.20;;;;;;5033234;28;20449;-62
2022/05/25 03:36:53;;;;;;;2.37;2.27;;;21.90;73.20;;;;;;5033156;28;20472;-63
2022/05/25 03:39:19;;;;;;;2.50;2.40;;;21.90;73.20;;;;;;5033319;28;20444;-63
2022/05/25 03:41:48;;;;;;;2.60;2.50;;;21.90;73.20;;;;;;5033215;28;20488;-63
2022/05/25 03:44:17;;;;;;;2.20;2.20;;;21.90;73.30;;;;;;5033014;28;20449;-65
2022/05/25 03:46:43;;;;;;;2.50;2.50;;;21.90;74.10;;;;;;5033037;28;20461;-64
2022/05/25 03:49:10;;;;;;;2.13;2.13;;;21.90;73.20;;;;;;5033070;28;20808;-62
2022/05/25 03:51:37;;;;;;;2.80;2.80;;;21.90;73.20;;;;;;5032819;28;20464;-63
2022/05/25 03:54:04;;;;;;;2.70;2.70;;;21.90;73.00;;;;;;5032647;28;20975;-63
2022/05/25 03:56:30;;;;;;;2.97;2.77;;;21.90;73.00;;;;;;5033290;28;20461;-63
2022/05/25 03:58:58;;;;;;;2.93;2.83;;;21.90;73.10;;;;;;5032769;28;20445;-65
2022/05/25 04:01:25;;;;;;;3.23;3.13;;;21.90;73.20;;;;;;5032643;28;20480;-64
2022/05/25 04:03:52;;;;;;;3.10;3.00;;;21.90;73.30;;;;;;5032911;28;20805;-63
2022/05/25 04:06:19;;;;;;;2.40;2.40;;;21.90;73.30;;;;;;5032679;28;20461;-63
2022/05/25 04:08:45;;;;;;;3.20;3.10;;;21.80;73.30;;;;;;5032587;28;20528;-66
2022/05/25 04:11:12;;;;;;;3.03;2.90;;;21.90;73.40;;;;;;5032488;28;20448;-63
2022/05/25 04:13:39;;;;;;;2.97;2.97;;;21.80;73.30;;;;;;5032674;28;20952;-63
2022/05/25 04:16:07;;;;;;;3.50;3.30;;;21.80;73.10;;;;;;5032604;28;20469;-65
2022/05/25 04:18:34;;;;;;;3.53;3.40;;;21.90;73.20;;;;;;5032305;28;20448;-63
2022/05/25 04:21:02;;;;;;;6.73;3.60;;;21.90;73.50;;;;;;5032253;28;20451;-64
2022/05/25 04:23:28;;;;;;;4.60;4.20;;;21.90;74.40;;;;;;5032772;28;20437;-64
2022/05/25 04:25:56;;;;;;;5.07;4.60;;;21.90;76.60;;;;;;5032285;28;20447;-61
2022/05/25 04:28:23;;;;;;;7.60;4.53;;;21.90;78.20;;;;;;5032778;28;20456;-63
2022/05/25 04:30:50;;;;;;;5.97;4.57;;;22.00;81.60;;;;;;5032123;28;20526;-64
2022/05/25 04:33:18;;;;;;;8.33;6.70;;;22.00;86.60;;;;;;5032099;28;20931;-64
2022/05/25 04:35:45;;;;;;;10.70;5.90;;;22.00;87.30;;;;;;5031924;28;20445;-64
2022/05/25 04:38:14;;;;;;;6.30;5.20;;;22.00;85.70;;;;;;5030449;28;20449;-64
2022/05/25 04:40:43;;;;;;;8.87;5.33;;;22.00;85.30;;;;;;5032198;28;20456;-64
2022/05/25 04:43:12;;;;;;;15.83;6.93;;;22.00;85.00;;;;;;5031973;28;20484;-64
2022/05/25 04:45:39;;;;;;;9.37;5.60;;;22.00;84.60;;;;;;5032032;28;20460;-64
2022/05/25 04:48:07;;;;;;;9.20;6.00;;;22.00;84.40;;;;;;5032041;28;20472;-64
2022/05/25 04:50:40;;;;;;;6.90;4.90;;;22.00;84.20;;;;;;5031942;28;20437;-64
2022/05/25 04:53:07;;;;;;;9.00;4.47;;;22.00;83.90;;;;;;5032004;28;20944;-64
2022/05/25 04:58:30;;;;;;;6.17;5.13;;;22.00;83.30;;;;;;4995934;28;20781;-65
2022/05/25 05:00:57;;;;;;;11.50;5.20;;;22.00;83.10;;;;;;5031776;28;20453;-65
2022/05/25 05:03:27;;;;;;;5.63;5.07;;;22.00;82.90;;;;;;5031271;28;20481;-64
2022/05/25 05:05:57;;;;;;;6.40;4.57;;;22.00;82.60;;;;;;5031657;28;20457;-64
2022/05/25 05:08:24;;;;;;;4.90;4.60;;;21.90;82.20;;;;;;5031711;28;20441;-64
2022/05/25 05:10:52;;;;;;;4.80;4.40;;;22.00;82.00;;;;;;5031790;28;20515;-64
2022/05/25 05:13:19;;;;;;;9.40;5.90;;;21.90;81.70;;;;;;5031732;28;20445;-64
2022/05/25 05:15:48;;;;;;;5.67;5.17;;;21.90;81.50;;;;;;5031765;28;20445;-64
2022/05/25 05:18:15;;;;;;;6.43;4.93;;;21.90;81.20;;;;;;5031601;28;20460;-64
2022/05/25 05:20:42;;;;;;;5.57;4.60;;;21.90;81.10;;;;;;5031557;28;20441;-64
2022/05/25 05:23:10;;;;;;;4.70;4.30;;;21.90;80.90;;;;;;5031435;28;20491;-64
2022/05/25 05:25:38;;;;;;;4.67;4.27;;;21.90;80.80;;;;;;5031434;28;20960;-64
2022/05/25 05:28:08;;;;;;;4.00;3.80;;;21.90;80.70;;;;;;5031224;28;20788;-64
2022/05/25 05:30:40;;;;;;;3.60;3.50;;;21.90;80.50;;;;;;5031571;28;20437;-64
2022/05/25 05:33:07;;;;;;;5.00;4.63;;;21.90;80.50;;;;;;5031690;28;20445;-64
2022/05/25 05:35:34;;;;;;;4.63;4.33;;;21.90;80.30;;;;;;5031359;28;20444;-64
2022/05/25 05:38:01;;;;;;;3.90;3.80;;;21.90;80.20;;;;;;5031247;28;20457;-64
2022/05/25 05:40:31;;;;;;;4.43;4.13;;;21.90;79.90;;;;;;5031587;28;20451;-65
2022/05/25 05:43:02;;;;;;;4.23;3.83;;;21.90;79.80;;;;;;5031364;28;20485;-64
2022/05/25 05:45:33;;;;;;;5.10;4.80;;;21.90;79.60;;;;;;5031436;28;20838;-64
2022/05/25 05:48:07;;;;;;;4.93;4.53;;;21.90;79.60;;;;;;5031082;28;20976;-64
2022/05/25 05:50:37;;;;;;;4.30;4.10;;;21.90;79.60;;;;;;5031327;28;20944;-65
2022/05/25 05:53:05;;;;;;;4.57;4.17;;;21.90;79.60;;;;;;5031337;28;20441;-65
2022/05/25 05:55:35;;;;;;;3.70;3.50;;;21.90;79.40;;;;;;5031283;28;20441;-64
2022/05/25 05:58:02;;;;;;;3.70;3.50;;;21.90;79.20;;;;;;5031259;28;20472;-64
2022/05/25 06:00:29;;;;;;;4.13;3.87;;;21.90;79.10;;;;;;5031172;28;20450;-64
2022/05/25 06:02:55;;;;;;;4.73;4.33;;;21.90;78.90;;;;;;5031364;28;20484;-64
2022/05/25 06:05:22;;;;;;;4.40;4.10;;;21.90;78.80;;;;;;5031178;28;20445;-64
2022/05/25 06:07:49;;;;;;;4.13;3.67;;;21.90;78.60;;;;;;5030997;28;20477;-64
2022/05/25 06:10:16;;;;;;;4.40;4.10;;;21.90;78.60;;;;;;5031020;28;20928;-64
2022/05/25 06:12:44;;;;;;;3.60;3.47;;;21.90;78.40;;;;;;5031112;28;20445;-64
2022/05/25 06:20:36;;;;;;;4.07;3.87;;;21.90;78.10;;;;;;5034885;28;20420;-65
2022/05/25 06:23:04;;;;;;;3.70;3.50;;;21.90;78.00;;;;;;5034638;28;20558;-64
2022/05/25 06:25:30;;;;;;;4.00;3.80;;;21.90;78.00;;;;;;5034720;28;20812;-64
2022/05/25 06:27:58;;;;;;;4.23;3.97;;;21.90;78.00;;;;;;5034536;28;20485;-64
2022/05/25 06:30:25;;;;;;;4.47;4.17;;;21.90;78.00;;;;;;5034669;28;20447;-64
2022/05/25 06:32:52;;;;;;;3.30;3.13;;;21.90;77.80;;;;;;5034674;28;20460;-64
2022/05/25 06:35:19;;;;;;;3.80;3.63;;;21.80;77.50;;;;;;5034714;28;20464;-64
2022/05/25 06:37:47;;;;;;;3.70;3.60;;;21.80;77.60;;;;;;5034223;28;20472;-65
2022/05/25 06:40:14;;;;;;;5.10;3.90;;;21.80;77.50;;;;;;5034391;28;20983;-64
2022/05/25 06:42:42;;;;;;;4.90;4.70;;;21.80;77.40;;;;;;5034449;28;20845;-64
2022/05/25 06:45:11;;;;;;;3.80;3.60;;;21.90;77.50;;;;;;5034395;28;20679;-65
2022/05/25 06:47:38;;;;;;;3.50;3.40;;;21.80;77.50;;;;;;5034100;28;20461;-64
2022/05/25 06:50:07;;;;;;;3.80;3.70;;;21.80;77.40;;;;;;5034283;28;20498;-64
2022/05/25 06:52:33;;;;;;;3.73;3.63;;;21.80;77.40;;;;;;5034204;28;20452;-65
2022/05/25 06:55:00;;;;;;;3.33;3.23;;;21.80;77.40;;;;;;5034196;28;20929;-64
2022/05/25 06:57:27;;;;;;;4.43;4.13;;;21.80;77.40;;;;;;5034137;28;20468;-64
2022/05/25 06:59:54;;;;;;;3.43;3.30;;;21.80;77.40;;;;;;5033921;28;20979;-64
2022/05/25 07:02:23;;;;;;;3.70;3.50;;;21.80;77.30;;;;;;5033954;28;20848;-64
2022/05/25 07:04:51;;;;;;;3.40;3.30;;;21.90;77.40;;;;;;5034071;28;20445;-64
2022/05/25 07:07:18;;;;;;;3.20;3.10;;;21.80;77.70;;;;;;5033717;28;20523;-64
2022/05/25 07:09:45;;;;;;;3.70;3.40;;;21.80;77.20;;;;;;5033894;28;20448;-63
2022/05/25 07:12:12;;;;;;;3.30;3.20;;;21.80;77.10;;;;;;5033915;28;20449;-63
2022/05/25 07:14:39;;;;;;;3.10;3.10;;;21.80;77.10;;;;;;5033841;28;20450;-63
2022/05/25 07:17:06;;;;;;;3.10;3.10;;;21.80;76.90;;;;;;5033669;28;20472;-63
2022/05/25 07:19:35;;;;;;;3.80;3.70;;;21.80;76.80;;;;;;5033652;28;20453;-63
2022/05/25 07:22:01;;;;;;;3.20;3.10;;;21.80;76.80;;;;;;5033701;28;20924;-64
2022/05/25 07:24:28;;;;;;;3.87;3.77;;;21.80;76.80;;;;;;5033695;28;20453;-64
2022/05/25 07:26:55;;;;;;;3.43;3.23;;;21.80;76.90;;;;;;5032457;28;20477;-64
2022/05/25 07:29:22;;;;;;;3.20;3.20;;;21.80;76.90;;;;;;5033506;28;20444;-64
2022/05/25 07:31:52;;;;;;;4.13;3.93;;;21.80;76.80;;;;;;5033505;28;20520;-64
2022/05/25 07:34:22;;;;;;;3.10;3.00;;;21.80;76.70;;;;;;5033818;28;20453;-64
2022/05/25 07:36:54;;;;;;;3.57;3.53;;;21.80;76.70;;;;;;5033188;28;20838;-64
2022/05/25 07:39:24;;;;;;;3.70;3.60;;;21.80;76.70;;;;;;5033426;28;20464;-65
2022/05/25 07:41:56;;;;;;;3.50;3.40;;;21.80;76.70;;;;;;5033363;28;20445;-65
2022/05/25 07:44:27;;;;;;;3.23;3.13;;;21.80;76.70;;;;;;5033278;28;20433;-65
2022/05/25 07:46:54;;;;;;;3.47;3.37;;;21.80;76.60;;;;;;5033099;28;20469;-65
2022/05/25 07:49:23;;;;;;;3.33;3.23;;;21.80;76.50;;;;;;5033097;28;20991;-65
2022/05/25 07:51:53;;;;;;;2.90;2.90;;;21.80;76.50;;;;;;5033357;28;20456;-64
2022/05/25 07:54:20;;;;;;;2.90;2.80;;;21.80;76.50;;;;;;5033189;28;20813;-65
2022/05/25 07:56:47;;;;;;;2.90;2.90;;;21.80;76.50;;;;;;5032908;28;20473;-65
2022/05/25 07:59:16;;;;;;;3.67;3.57;;;21.80;76.50;;;;;;5032901;28;20441;-65
2022/05/25 08:07:20;;;;;;;3.73;3.33;;;21.80;76.40;;;;;;5032712;28;20515;-66
2022/05/25 08:09:47;;;;;;;3.10;3.00;;;21.80;76.40;;;;;;5033186;28;20452;-66
2022/05/25 08:12:14;;;;;;;2.90;2.90;;;21.80;76.20;;;;;;5032822;28;20781;-66
2022/05/25 08:14:41;;;;;;;3.20;3.00;;;21.80;76.10;;;;;;5032712;28;20444;-64
2022/05/25 08:17:08;;;;;;;3.33;3.23;;;21.80;76.00;;;;;;5032475;28;20460;-64
2022/05/25 08:19:35;;;;;;;3.30;3.27;;;21.80;76.00;;;;;;5032600;28;20493;-64
2022/05/25 08:22:01;;;;;;;3.37;3.27;;;21.80;76.20;;;;;;5032553;28;20444;-63
2022/05/25 08:24:32;;;;;;;2.70;2.70;;;21.80;76.00;;;;;;5032720;28;20485;-64
2022/05/25 08:26:59;;;;;;;2.67;2.67;;;21.80;76.00;;;;;;5032262;28;20906;-63
2022/05/25 08:29:26;;;;;;;2.90;2.90;;;21.80;75.90;;;;;;5032408;28;20452;-63
2022/05/25 08:31:55;;;;;;;3.30;3.20;;;21.80;76.00;;;;;;5032354;28;20824;-63
2022/05/25 08:34:22;;;;;;;3.07;3.03;;;21.80;76.00;;;;;;5032331;28;20447;-63
2022/05/25 08:36:49;;;;;;;3.37;3.37;;;21.80;75.90;;;;;;5032042;28;20539;-63
2022/05/25 08:39:16;;;;;;;3.00;3.00;;;21.80;75.80;;;;;;5032018;28;20441;-63
2022/05/25 08:41:45;;;;;;;3.53;3.43;;;21.80;75.80;;;;;;5032178;28;20448;-64
2022/05/25 08:44:14;;;;;;;3.57;3.47;;;21.80;75.70;;;;;;5032089;28;20488;-63
2022/05/25 08:46:41;;;;;;;3.20;3.10;;;21.80;75.60;;;;;;5032563;28;20465;-63
2022/05/25 08:49:12;;;;;;;3.20;3.10;;;21.80;75.60;;;;;;5032258;28;20448;-63
2022/05/25 08:51:45;;;;;;;2.93;2.93;;;21.80;75.50;;;;;;5032102;28;20445;-64
2022/05/25 08:54:12;;;;;;;2.90;2.90;;;21.80;75.50;;;;;;5032286;28;20441;-63
2022/05/25 08:56:45;;;;;;;3.37;3.27;;;21.80;75.50;;;;;;5031827;28;20468;-64
2022/05/25 08:59:15;;;;;;;6.20;3.60;;;21.80;75.40;;;;;;5031907;28;20441;-63
2022/05/25 09:01:45;;;;;;;3.20;3.20;;;21.80;75.20;;;;;;5032124;28;20516;-64
2022/05/25 09:04:26;;;;;;;3.23;3.13;;;21.80;75.20;;;;;;5031940;28;20484;-63
2022/05/25 09:06:59;;;;;;;3.27;3.27;;;21.80;75.20;;;;;;5031542;28;20472;-63
2022/05/25 09:09:35;;;;;;;3.20;3.10;;;21.80;75.20;;;;;;5031820;28;20445;-64
2022/05/25 09:12:11;;;;;;;3.60;3.50;;;21.80;75.10;;;;;;5031957;28;20444;-64
2022/05/25 09:14:43;;;;;;;3.27;3.27;;;21.80;75.10;;;;;;5031802;28;20441;-63
2022/05/25 09:17:17;;;;;;;3.40;3.37;;;21.80;74.90;;;;;;5031444;28;20514;-64
2022/05/25 09:19:46;;;;;;;3.67;3.67;;;21.80;74.90;;;;;;5031655;28;20967;-63
2022/05/25 09:22:19;;;;;;;3.20;3.20;;;21.80;74.80;;;;;;5031590;28;20468;-65
2022/05/25 09:24:47;;;;;;;3.20;3.10;;;21.80;74.70;;;;;;5031551;28;20992;-64
2022/05/25 09:27:19;;;;;;;3.40;3.30;;;21.80;74.70;;;;;;5031143;28;21006;-64
2022/05/25 09:29:46;;;;;;;3.57;3.47;;;21.80;74.70;;;;;;5031537;28;20445;-64
2022/05/25 09:32:29;;;;;;;3.53;3.50;;;21.80;74.60;;;;;;5031465;28;20982;-64
2022/05/25 09:35:06;;;;;;;3.23;3.23;;;21.80;74.60;;;;;;5031534;28;20482;-64
2022/05/25 09:37:41;;;;;;;3.30;3.20;;;21.80;74.50;;;;;;5031319;28;20993;-64
2022/05/25 09:40:14;;;;;;;2.93;2.90;;;21.80;74.40;;;;;;5031673;28;20444;-64
2022/05/25 09:42:42;;;;;;;3.90;3.80;;;21.80;74.30;;;;;;5031357;28;20445;-63
2022/05/25 09:45:13;;;;;;;3.03;3.03;;;21.80;74.30;;;;;;5031522;28;20449;-63
2022/05/25 09:47:42;;;;;;;3.43;3.33;;;21.80;74.20;;;;;;5031157;28;20461;-64
2022/05/25 09:50:17;;;;;;;3.43;3.43;;;21.80;74.20;;;;;;5031962;28;20506;-64
2022/05/25 09:52:49;;;;;;;2.90;2.90;;;21.80;74.90;;;;;;5035494;28;20444;-63
2022/05/25 09:55:19;;;;;;;3.50;3.40;;;21.80;74.10;;;;;;5035352;28;20928;-63
2022/05/25 09:57:54;;;;;;;3.10;3.10;;;21.80;74.00;;;;;;5035099;28;20471;-65
2022/05/25 10:00:24;;;;;;;2.90;2.90;;;21.80;73.90;;;;;;5035330;28;20452;-64
2022/05/25 10:02:58;;;;;;;3.20;3.20;;;21.80;73.80;;;;;;5035089;28;20449;-64
2022/05/25 10:05:28;;;;;;;3.00;3.00;;;21.80;73.80;;;;;;5035213;28;20804;-63
2022/05/25 10:08:02;;;;;;;3.03;3.03;;;21.80;73.70;;;;;;5034833;28;20559;-63
2022/05/25 10:10:33;;;;;;;3.23;3.23;;;21.80;73.70;;;;;;5035316;28;20556;-63
2022/05/25 10:13:04;;;;;;;2.90;2.90;;;21.80;73.60;;;;;;5035175;28;20448;-65
2022/05/25 10:15:34;;;;;;;3.50;3.40;;;21.80;73.40;;;;;;5034986;28;20456;-65
2022/05/25 10:18:02;;;;;;;3.00;3.00;;;21.80;73.50;;;;;;5034905;28;20464;-64
2022/05/25 10:20:34;;;;;;;3.40;3.30;;;21.80;74.20;;;;;;5034928;28;20933;-64
2022/05/25 10:23:05;;;;;;;3.50;3.40;;;21.80;73.40;;;;;;5034900;28;20812;-64
2022/05/25 10:25:37;;;;;;;3.13;3.13;;;21.80;73.30;;;;;;5034758;28;20452;-63
2022/05/25 10:28:19;;;;;;;3.53;3.43;;;21.80;73.20;;;;;;5034964;28;20461;-65
2022/05/25 10:36:49;;;;;;;3.40;3.40;;;21.90;73.20;;;;;;4960451;28;20983;-64
2022/05/25 10:39:23;;;;;;;3.13;3.13;;;21.90;73.10;;;;;;5034392;28;20453;-65
2022/05/25 10:42:05;;;;;;;3.20;3.20;;;21.90;73.00;;;;;;5034518;28;20451;-64
2022/05/25 10:44:42;;;;;;;3.10;3.10;;;21.90;72.90;;;;;;5034380;28;20887;-64
2022/05/25 10:47:21;;;;;;;3.07;3.00;;;21.90;72.80;;;;;;5034150;28;20456;-64
2022/05/25 10:49:47;;;;;;;3.30;3.20;;;21.90;72.70;;;;;;5034527;28;20444;-64
2022/05/25 10:52:22;;;;;;;2.90;2.90;;;21.90;72.60;;;;;;5034358;28;20440;-64
2022/05/25 10:54:52;;;;;;;2.67;2.67;;;21.90;72.50;;;;;;5034216;28;20441;-64
2022/05/25 10:57:36;;;;;;;3.00;3.00;;;21.90;72.50;;;;;;5033968;28;20473;-64
2022/05/25 11:00:08;;;;;;;3.23;3.23;;;21.90;72.40;;;;;;5034153;28;20453;-64
2022/05/25 11:02:51;;;;;;;3.10;3.10;;;21.90;72.30;;;;;;5034063;28;20471;-66
2022/05/25 11:05:25;;;;;;;3.40;3.30;;;21.90;73.00;;;;;;5034297;28;20437;-65
2022/05/25 11:07:56;;;;;;;3.10;3.10;;;21.90;72.10;;;;;;5033687;28;20825;-65
2022/05/25 11:10:43;;;;;;;3.07;3.07;;;21.90;72.10;;;;;;5033945;28;20452;-65
2022/05/25 11:13:27;;;;;;;3.00;3.00;;;21.90;72.00;;;;;;5033984;28;20449;-65
2022/05/25 11:16:04;;;;;;;2.93;2.83;;;22.00;72.00;;;;;;5033760;28;20445;-66
2022/05/25 11:18:50;;;;;;;2.90;2.90;;;22.00;71.90;;;;;;5033609;28;20461;-65
2022/05/25 11:21:30;;;;;;;2.90;2.90;;;22.00;71.80;;;;;;5033766;28;20456;-66
2022/05/25 11:24:22;;;;;;;3.13;3.13;;;22.00;71.70;;;;;;5033555;28;20484;-65
2022/05/25 11:27:06;;;;;;;2.97;2.97;;;22.00;71.60;;;;;;5033528;28;20553;-65
2022/05/25 11:30:00;;;;;;;2.90;2.90;;;22.00;71.40;;;;;;5033566;28;20448;-65
2022/05/25 11:32:42;;;;;;;2.87;2.87;;;22.00;71.40;;;;;;5033915;28;20437;-66
2022/05/25 11:35:21;;;;;;;2.90;2.90;;;22.00;71.30;;;;;;5033561;28;20450;-65
2022/05/25 11:38:02;;;;;;;3.10;3.00;;;22.00;71.20;;;;;;5033245;28;20476;-65
2022/05/25 11:40:43;;;;;;;3.20;3.20;;;22.00;71.10;;;;;;5033528;28;20662;-66
2022/05/25 11:43:31;;;;;;;2.97;2.97;;;22.00;71.00;;;;;;5033345;28;20455;-66
2022/05/25 11:46:05;;;;;;;2.90;2.90;;;22.00;70.80;;;;;;5033492;28;20445;-66
2022/05/25 11:48:48;;;;;;;3.30;3.30;;;22.00;70.70;;;;;;5033095;28;20538;-65
2022/05/25 11:51:22;;;;;;;2.80;2.80;;;22.00;70.60;;;;;;5033181;28;20456;-65
2022/05/25 11:54:15;;;;;;;2.80;2.80;;;22.00;70.50;;;;;;5033188;28;20936;-66
2022/05/25 11:56:54;;;;;;;3.07;3.07;;;22.00;70.30;;;;;;5033099;28;20915;-65
2022/05/25 11:59:58;;;;;;;2.90;2.90;;;22.00;70.20;;;;;;5033020;28;20448;-66
2022/05/25 12:02:50;;;;;;;2.80;2.80;;;22.10;70.20;;;;;;5033041;28;20444;-66
2022/05/25 12:05:27;;;;;;;3.97;3.63;;;22.10;70.10;;;;;;5032772;28;20852;-66
2022/05/25 12:08:07;;;;;;;3.20;3.10;;;22.10;70.70;;;;;;5032577;28;20465;-64
2022/05/25 12:10:37;;;;;;;3.20;3.20;;;22.10;69.90;;;;;;5032833;28;20468;-64
2022/05/25 12:13:13;;;;;;;3.10;3.10;;;22.10;69.80;;;;;;5032368;28;20452;-64
2022/05/25 12:15:54;;;;;;;2.93;2.83;;;22.10;69.60;;;;;;5032891;28;20499;-67
2022/05/25 12:18:33;;;;;;;3.10;3.10;;;22.10;69.60;;;;;;5032399;28;20468;-65
2022/05/25 12:21:06;;;;;;;2.87;2.87;;;22.10;69.40;;;;;;5032670;28;20528;-65
2022/05/25 12:23:37;;;;;;;3.27;3.27;;;22.10;69.30;;;;;;5032743;28;20460;-65
2022/05/25 12:26:08;;;;;;;3.00;3.00;;;22.10;69.20;;;;;;5032464;28;20449;-66
2022/05/25 12:28:39;;;;;;;3.37;3.37;;;22.20;69.20;;;;;;5032368;28;20445;-65
2022/05/25 12:31:10;;;;;;;3.10;3.10;;;22.20;69.00;;;;;;5032611;28;20789;-66
2022/05/25 12:33:37;;;;;;;2.70;2.70;;;22.20;69.00;;;;;;5032483;28;20445;-65
2022/05/25 12:36:08;;;;;;;3.10;3.10;;;22.20;68.90;;;;;;5032346;28;20445;-67
2022/05/25 12:38:36;;;;;;;3.10;3.10;;;22.20;68.80;;;;;;5032157;28;20485;-65
2022/05/25 12:41:23;;;;;;;2.90;2.90;;;22.20;68.70;;;;;;5032240;28;20449;-65
2022/05/25 12:43:52;;;;;;;3.00;3.00;;;22.20;68.60;;;;;;5032200;28;20480;-65
2022/05/25 12:49:35;;;;;;;3.00;2.90;;;22.20;68.30;;;;;;5032391;28;20439;-66
2022/05/25 12:52:43;;;;;;;3.00;3.00;;;22.20;68.30;;;;;;5032050;28;20444;-66
2022/05/25 12:55:36;;;;;;;2.97;2.97;;;22.30;68.40;;;;;;5032049;28;20445;-66
2022/05/25 12:58:05;;;;;;;3.00;3.00;;;22.30;68.30;;;;;;5027760;28;20477;-64
2022/05/25 13:00:36;;;;;;;2.90;2.90;;;22.30;68.20;;;;;;5031984;28;20847;-66
2022/05/25 13:03:34;;;;;;;3.10;3.10;;;22.30;68.10;;;;;;5031900;28;20472;-64
2022/05/25 13:06:02;;;;;;;3.10;3.00;;;22.30;68.10;;;;;;5031797;28;20441;-65
2022/05/25 13:09:07;;;;;;;3.20;3.20;;;22.30;68.00;;;;;;5031796;28;20964;-64
2022/05/25 13:11:39;;;;;;;3.00;3.00;;;22.30;67.80;;;;;;5031891;28;20532;-67
2022/05/25 13:14:27;;;;;;;3.27;3.17;;;22.30;67.70;;;;;;5031785;28;20437;-66
2022/05/25 13:16:57;;;;;;;3.20;3.20;;;22.30;67.60;;;;;;5031236;28;20472;-62
2022/05/25 13:19:39;;;;;;;3.20;3.10;;;22.40;67.70;;;;;;5031104;28;20449;-63
2022/05/25 13:22:21;;;;;;;3.13;3.13;;;22.40;68.20;;;;;;5031663;28;20453;-63
2022/05/25 13:25:12;;;;;;;3.60;3.50;;;22.50;67.10;;;;;;5031029;28;20508;-63
2022/05/25 13:28:09;;;;;;;3.50;3.40;;;22.50;66.10;;;;;;5031292;28;20484;-64
2022/05/25 13:31:04;;;;;;;3.10;3.10;;;22.50;65.20;;;;;;5031461;28;20906;-63
2022/05/25 13:33:39;;;;;;;3.00;3.00;;;22.60;64.50;;;;;;5031494;28;20453;-64
2022/05/25 13:36:14;;;;;;;3.10;3.10;;;22.60;64.00;;;;;;5031474;28;20995;-63
2022/05/25 13:38:46;;;;;;;3.50;3.40;;;22.60;63.40;;;;;;5031080;28;20455;-62